Time;durP1;ratioP1;P1;durP2;ratioP2;P2;SDS_P1;SDS_P2;PMS_P1;PMS_P2;Temp;Humidity;BMP_temperature;BMP_pressure;BME280_temperature;BME280_humidity;BME280_pressure;Samples;Min_cycle;Max_cycle;Signal;HPM_P1;HPM_P2
2024/01/30 00:01:45;;;;;;;;;;;;;;;1.95;100.00;102155.19;5043624;28;19940;-78
2024/01/30 00:04:13;;;;;;;;;;;;;;;1.91;100.00;102153.91;5042157;28;19925;-79
2024/01/30 00:06:41;;;;;;;;;;;;;;;2.00;100.00;102150.94;5042052;28;19932;-79
2024/01/30 00:09:14;;;;;;;;;;;;;;;1.99;100.00;102157.31;5024677;28;19921;-79
2024/01/30 00:11:48;;;;;;;;;;;;;;;2.01;100.00;102146.38;5032533;28;19921;-79
2024/01/30 00:14:16;;;;;;;;;;;;;;;1.96;100.00;102151.47;5043547;28;19932;-79
2024/01/30 00:16:50;;;;;;;;;;;;;;;2.17;100.00;102148.03;5028931;28;19925;-79
2024/01/30 00:19:23;;;;;;;;;;;;;;;2.14;100.00;102138.50;5041373;28;19924;-79
2024/01/30 00:21:55;;;;;;;;;;;;;;;2.11;100.00;102141.53;5037923;28;19925;-78
2024/01/30 00:24:29;;;;;;;;;;;;;;;2.12;100.00;102147.75;5040319;28;19932;-79
2024/01/30 00:26:58;;;;;;;;;;;;;;;2.15;100.00;102142.81;5040123;28;19928;-79
2024/01/30 00:29:33;;;;;;;;;;;;;;;2.20;100.00;102142.28;5039656;28;19935;-79
2024/01/30 00:32:01;;;;;;;;;;;;;;;2.24;100.00;102135.53;5041669;28;20290;-80
2024/01/30 00:34:34;;;;;;;;;;;;;;;2.32;100.00;102134.56;5018647;28;19940;-79
2024/01/30 00:37:02;;;;;;;;;;;;;;;2.46;100.00;102139.06;5043376;28;20198;-79
2024/01/30 00:39:35;;;;;;;;;;;;;;;2.44;100.00;102130.34;5043553;28;19932;-79
2024/01/30 00:42:09;;;;;;;;;;;;;;;2.40;100.00;102131.75;5043446;28;19921;-79
2024/01/30 00:44:42;;;;;;;;;;;;;;;2.32;100.00;102130.03;5039813;28;19932;-79
2024/01/30 00:47:15;;;;;;;;;;;;;;;2.34;100.00;102130.66;5039511;28;19924;-79
2024/01/30 00:49:48;;;;;;;;;;;;;;;2.25;100.00;102130.97;5043393;28;19925;-79
2024/01/30 00:52:16;;;;;;;;;;;;;;;2.18;100.00;102130.88;5020899;28;19932;-79
2024/01/30 00:54:44;;;;;;;;;;;;;;;2.08;100.00;102131.19;5038896;28;19920;-79
2024/01/30 00:57:18;;;;;;;;;;;;;;;2.16;100.00;102127.56;5038751;28;19928;-79
2024/01/30 00:59:51;;;;;;;;;;;;;;;2.13;100.00;102120.72;5044051;28;19925;-79
2024/01/30 01:02:24;;;;;;;;;;;;;;;2.07;100.00;102129.50;5025690;28;19921;-79
2024/01/30 01:04:52;;;;;;;;;;;;;;;2.11;100.00;102120.06;5040944;28;20388;-79
2024/01/30 01:07:25;;;;;;;;;;;;;;;2.04;100.00;102128.06;5044362;28;19978;-80
2024/01/30 01:09:53;;;;;;;;;;;;;;;1.93;100.00;102116.94;5041391;28;19920;-78
2024/01/30 01:12:28;;;;;;;;;;;;;;;1.83;100.00;102123.41;5042796;28;19925;-79
2024/01/30 01:15:02;;;;;;;;;;;;;;;1.70;100.00;102124.06;5029433;28;19927;-79
2024/01/30 01:17:35;;;;;;;;;;;;;;;1.55;100.00;102112.50;5038540;28;19928;-80
2024/01/30 01:20:03;;;;;;;;;;;;;;;1.58;100.00;102122.88;5041832;28;19928;-79
2024/01/30 01:22:38;;;;;;;;;;;;;;;1.63;100.00;102119.63;5024193;28;19936;-79
2024/01/30 01:25:11;;;;;;;;;;;;;;;1.48;100.00;102122.31;5042422;28;19928;-79
2024/01/30 01:27:51;;;;;;;;;;;;;;;1.35;100.00;102120.25;5044800;28;19935;-79
2024/01/30 01:30:25;;;;;;;;;;;;;;;1.29;100.00;102121.00;5040942;28;20301;-79
2024/01/30 01:33:01;;;;;;;;;;;;;;;1.26;100.00;102116.00;5022234;28;19928;-79
2024/01/30 01:35:34;;;;;;;;;;;;;;;1.37;100.00;102120.91;5041203;28;19921;-79
2024/01/30 01:38:02;;;;;;;;;;;;;;;1.36;100.00;102116.56;5042241;28;19925;-79
2024/01/30 01:40:30;;;;;;;;;;;;;;;1.42;100.00;102121.19;5020897;28;19920;-79
2024/01/30 01:43:05;;;;;;;;;;;;;;;1.49;100.00;102118.59;5040346;28;19924;-79
2024/01/30 01:45:38;;;;;;;;;;;;;;;1.75;100.00;102120.00;5028403;28;19924;-79
2024/01/30 01:48:12;;;;;;;;;;;;;;;1.98;100.00;102110.00;5041771;28;19924;-79
2024/01/30 01:50:45;;;;;;;;;;;;;;;2.36;100.00;102117.03;5037529;28;19924;-79
2024/01/30 01:53:13;;;;;;;;;;;;;;;2.36;100.00;102106.28;5035660;28;20004;-79
2024/01/30 01:55:41;;;;;;;;;;;;;;;2.38;100.00;102110.47;5041199;28;19932;-79
2024/01/30 01:58:15;;;;;;;;;;;;;;;2.47;100.00;102103.13;5025305;28;19929;-79
2024/01/30 02:00:43;;;;;;;;;;;;;;;2.52;100.00;102103.38;5040550;28;19925;-78
2024/01/30 02:03:18;;;;;;;;;;;;;;;2.45;100.00;102097.09;5041003;28;19925;-79
2024/01/30 02:05:47;;;;;;;;;;;;;;;2.43;100.00;102103.69;5045117;28;19971;-78
2024/01/30 02:08:16;;;;;;;;;;;;;;;2.35;100.00;102107.34;5039546;28;19925;-79
2024/01/30 02:10:49;;;;;;;;;;;;;;;2.26;100.00;102103.09;5040242;28;20019;-79
2024/01/30 02:13:18;;;;;;;;;;;;;;;2.15;100.00;102099.84;5044031;28;19931;-79
2024/01/30 02:15:52;;;;;;;;;;;;;;;2.03;100.00;102096.00;5044319;28;19921;-79
2024/01/30 02:18:20;;;;;;;;;;;;;;;1.92;100.00;102097.31;5042797;28;19928;-79
2024/01/30 02:20:48;;;;;;;;;;;;;;;1.82;100.00;102102.13;5042309;28;19934;-79
2024/01/30 02:23:24;;;;;;;;;;;;;;;1.70;100.00;102096.41;5044807;28;19937;-80
2024/01/30 02:25:57;;;;;;;;;;;;;;;1.56;100.00;102098.09;5040781;28;20313;-79
2024/01/30 02:28:30;;;;;;;;;;;;;;;1.50;100.00;102096.13;5026612;28;19997;-79
2024/01/30 02:30:58;;;;;;;;;;;;;;;1.43;100.00;102103.25;5034944;28;20486;-79
2024/01/30 02:33:31;;;;;;;;;;;;;;;1.37;100.00;102096.78;5044831;28;19921;-79
2024/01/30 02:36:04;;;;;;;;;;;;;;;1.31;100.00;102097.50;5046203;28;19936;-79
2024/01/30 02:38:38;;;;;;;;;;;;;;;1.20;100.00;102096.09;5046216;28;19929;-79
2024/01/30 02:41:11;;;;;;;;;;;;;;;1.22;100.00;102087.88;5044567;28;19928;-79
2024/01/30 02:43:44;;;;;;;;;;;;;;;1.18;100.00;102090.91;5042913;28;19929;-79
2024/01/30 02:46:17;;;;;;;;;;;;;;;1.14;100.00;102081.56;5038641;28;20348;-79
2024/01/30 02:48:50;;;;;;;;;;;;;;;1.05;100.00;102085.34;5044223;28;20622;-79
2024/01/30 02:51:23;;;;;;;;;;;;;;;0.91;100.00;102081.63;5043367;28;20529;-79
2024/01/30 02:53:53;;;;;;;;;;;;;;;1.00;100.00;102087.75;5040611;28;19925;-79
2024/01/30 02:56:25;;;;;;;;;;;;;;;0.96;100.00;102086.44;5038634;28;19921;-79
2024/01/30 02:58:58;;;;;;;;;;;;;;;1.04;100.00;102078.31;5044340;28;19927;-79
2024/01/30 03:01:31;;;;;;;;;;;;;;;1.05;100.00;102084.50;5027651;28;19925;-79
2024/01/30 03:03:59;;;;;;;;;;;;;;;1.03;100.00;102082.00;5042351;28;19925;-79
2024/01/30 03:06:32;;;;;;;;;;;;;;;1.13;100.00;102076.38;5038040;28;19931;-79
2024/01/30 03:09:07;;;;;;;;;;;;;;;1.15;100.00;102074.38;5028270;28;20255;-79
2024/01/30 03:11:40;;;;;;;;;;;;;;;1.15;100.00;102066.31;5042732;28;19927;-79
2024/01/30 03:14:13;;;;;;;;;;;;;;;1.23;100.00;102068.91;5040325;28;20289;-79
2024/01/30 03:16:46;;;;;;;;;;;;;;;1.26;100.00;102079.28;5036718;28;19921;-79
2024/01/30 03:19:19;;;;;;;;;;;;;;;1.26;100.00;102065.03;5042871;28;19921;-78
2024/01/30 03:21:52;;;;;;;;;;;;;;;1.32;100.00;102064.28;5045547;28;19936;-79
2024/01/30 03:24:27;;;;;;;;;;;;;;;1.36;100.00;102063.72;5044026;28;19924;-79
2024/01/30 03:27:00;;;;;;;;;;;;;;;1.41;100.00;102057.84;5043617;28;19928;-79
2024/01/30 03:29:33;;;;;;;;;;;;;;;1.45;100.00;102056.44;5043875;28;19940;-79
2024/01/30 03:32:00;;;;;;;;;;;;;;;1.50;100.00;102051.34;5041871;28;19932;-79
2024/01/30 03:34:33;;;;;;;;;;;;;;;1.56;100.00;102052.47;5041255;28;19925;-79
2024/01/30 03:37:06;;;;;;;;;;;;;;;1.61;100.00;102054.59;5039853;28;19928;-79
2024/01/30 03:39:41;;;;;;;;;;;;;;;1.64;100.00;102043.47;5038861;28;19924;-79
2024/01/30 03:42:14;;;;;;;;;;;;;;;1.62;100.00;102042.84;5057343;28;19921;-79
2024/01/30 03:44:46;;;;;;;;;;;;;;;1.60;100.00;102036.81;5045581;28;19929;-79
2024/01/30 03:47:20;;;;;;;;;;;;;;;1.55;100.00;102049.94;5040596;28;19924;-79
2024/01/30 03:49:53;;;;;;;;;;;;;;;1.49;100.00;102046.16;5041409;28;20254;-79
2024/01/30 03:52:21;;;;;;;;;;;;;;;1.49;100.00;102038.09;5045063;28;20301;-79
2024/01/30 03:54:50;;;;;;;;;;;;;;;1.51;100.00;102042.28;5046609;28;19939;-79
2024/01/30 03:57:19;;;;;;;;;;;;;;;1.54;100.00;102027.66;5022238;28;19924;-79
2024/01/30 03:59:52;;;;;;;;;;;;;;;1.57;100.00;102027.28;5043295;28;19921;-79
2024/01/30 04:02:24;;;;;;;;;;;;;;;1.51;100.00;102026.19;5045972;28;19925;-79
2024/01/30 04:04:58;;;;;;;;;;;;;;;1.48;100.00;102029.25;5025532;28;19928;-79
2024/01/30 04:07:31;;;;;;;;;;;;;;;1.53;100.00;102026.00;5039549;28;20558;-78
2024/01/30 04:10:06;;;;;;;;;;;;;;;1.59;100.00;102043.19;5034570;28;19928;-79
2024/01/30 04:12:34;;;;;;;;;;;;;;;1.70;100.00;102038.19;5061273;28;19932;-79
2024/01/30 04:15:07;;;;;;;;;;;;;;;1.62;100.00;102035.63;5042782;28;19921;-79
2024/01/30 04:17:40;;;;;;;;;;;;;;;1.62;100.00;102046.34;5045729;28;19932;-79
2024/01/30 04:20:14;;;;;;;;;;;;;;;1.60;100.00;102050.22;5044318;28;19924;-79
2024/01/30 04:22:47;;;;;;;;;;;;;;;1.51;100.00;102042.28;5042527;28;20048;-79
2024/01/30 04:25:17;;;;;;;;;;;;;;;1.51;100.00;102046.81;5031020;28;20068;-79
2024/01/30 04:27:45;;;;;;;;;;;;;;;1.55;100.00;102048.13;5058569;28;19936;-79
2024/01/30 04:30:13;;;;;;;;;;;;;;;1.46;100.00;102049.22;5037889;28;19925;-79
2024/01/30 04:32:46;;;;;;;;;;;;;;;1.44;100.00;102051.28;5044290;28;20393;-79
2024/01/30 04:35:14;;;;;;;;;;;;;;;1.41;100.00;102044.41;5040101;28;19921;-79
2024/01/30 04:37:47;;;;;;;;;;;;;;;1.42;100.00;102051.44;5040952;28;19928;-79
2024/01/30 04:40:21;;;;;;;;;;;;;;;1.45;100.00;102048.41;5041328;28;20492;-80
2024/01/30 04:42:54;;;;;;;;;;;;;;;1.50;100.00;102047.84;5031114;28;19932;-79
2024/01/30 04:45:27;;;;;;;;;;;;;;;1.46;100.00;102039.31;5041382;28;19925;-79
2024/01/30 04:48:00;;;;;;;;;;;;;;;1.55;100.00;102040.06;5024453;28;19921;-79
2024/01/30 04:50:28;;;;;;;;;;;;;;;1.52;100.00;102035.91;5043245;28;19928;-79
2024/01/30 04:53:01;;;;;;;;;;;;;;;1.57;100.00;102031.81;5044774;28;19932;-79
2024/01/30 04:55:35;;;;;;;;;;;;;;;1.61;100.00;102033.94;5023136;28;19932;-79
2024/01/30 04:58:08;;;;;;;;;;;;;;;1.59;100.00;102032.47;5041359;28;19925;-79
2024/01/30 05:00:41;;;;;;;;;;;;;;;1.63;100.00;102034.59;5046837;28;20404;-79
2024/01/30 05:03:14;;;;;;;;;;;;;;;1.59;100.00;102040.50;5027778;28;19928;-78
2024/01/30 05:05:47;;;;;;;;;;;;;;;1.67;100.00;102038.56;5038343;28;19925;-79
2024/01/30 05:08:15;;;;;;;;;;;;;;;1.64;100.00;102038.97;5044013;28;19935;-79
2024/01/30 05:10:50;;;;;;;;;;;;;;;1.61;100.00;102033.94;5037725;28;19932;-79
2024/01/30 05:13:22;;;;;;;;;;;;;;;1.65;100.00;102035.22;5055926;28;20459;-79
2024/01/30 05:15:50;;;;;;;;;;;;;;;1.60;100.00;102034.13;5039071;28;19925;-79
2024/01/30 05:18:23;;;;;;;;;;;;;;;1.50;100.00;102037.91;5041941;28;20285;-79
2024/01/30 05:20:51;;;;;;;;;;;;;;;1.47;100.00;102037.47;5057793;28;19932;-79
2024/01/30 05:23:24;;;;;;;;;;;;;;;1.43;100.00;102046.91;5038509;28;19932;-78
2024/01/30 05:26:00;;;;;;;;;;;;;;;1.44;100.00;102046.72;5036275;28;19925;-79
2024/01/30 05:28:33;;;;;;;;;;;;;;;1.39;100.00;102041.06;5046913;28;19932;-79
2024/01/30 05:31:01;;;;;;;;;;;;;;;1.36;100.00;102039.59;5039871;28;19932;-79
2024/01/30 05:33:34;;;;;;;;;;;;;;;1.35;100.00;102043.31;5044594;28;19932;-79
2024/01/30 05:36:07;;;;;;;;;;;;;;;1.48;100.00;102034.59;5056935;28;19932;-79
2024/01/30 05:38:36;;;;;;;;;;;;;;;1.52;100.00;102016.31;5025220;28;19921;-79
2024/01/30 05:41:11;;;;;;;;;;;;;;;1.52;100.00;102019.81;5037026;28;19924;-78
2024/01/30 05:43:38;;;;;;;;;;;;;;;1.48;100.00;102017.69;5043001;28;20582;-78
2024/01/30 05:46:11;;;;;;;;;;;;;;;1.40;100.00;102002.50;5042733;28;19920;-78
2024/01/30 05:48:44;;;;;;;;;;;;;;;1.38;100.00;102006.41;5048527;28;19924;-78
2024/01/30 05:51:17;;;;;;;;;;;;;;;1.45;100.00;102005.47;5043669;28;19932;-79
2024/01/30 05:53:45;;;;;;;;;;;;;;;1.50;100.00;102003.03;5029978;28;19925;-79
2024/01/30 05:56:19;;;;;;;;;;;;;;;1.68;100.00;102010.69;5022268;28;19921;-80
2024/01/30 05:58:52;;;;;;;;;;;;;;;1.64;100.00;102013.94;5041778;28;19936;-79
2024/01/30 06:01:20;;;;;;;;;;;;;;;1.68;100.00;102012.56;5038218;28;20520;-78
2024/01/30 06:03:53;;;;;;;;;;;;;;;1.72;100.00;102010.34;5045033;28;19925;-79
2024/01/30 06:06:21;;;;;;;;;;;;;;;1.73;100.00;102010.16;5040538;28;19931;-78
2024/01/30 06:08:56;;;;;;;;;;;;;;;1.87;100.00;102000.41;5036984;28;20380;-79
2024/01/30 06:11:25;;;;;;;;;;;;;;;1.89;100.00;101992.16;5038313;28;19925;-79
2024/01/30 06:13:53;;;;;;;;;;;;;;;1.84;100.00;101995.41;5044280;28;19928;-79
2024/01/30 06:16:21;;;;;;;;;;;;;;;1.90;100.00;101994.66;5040275;28;19932;-79
2024/01/30 06:18:54;;;;;;;;;;;;;;;1.87;100.00;101993.16;5035545;28;19932;-79
2024/01/30 06:21:27;;;;;;;;;;;;;;;1.92;100.00;101994.44;5039114;28;19928;-79
2024/01/30 06:24:00;;;;;;;;;;;;;;;1.87;100.00;101995.84;5040671;28;19928;-79
2024/01/30 06:26:34;;;;;;;;;;;;;;;1.86;100.00;101994.22;5044145;28;19932;-79
2024/01/30 06:29:07;;;;;;;;;;;;;;;1.81;100.00;101993.94;5036310;28;19931;-80
2024/01/30 06:31:40;;;;;;;;;;;;;;;1.85;100.00;101991.69;5037861;28;19921;-79
2024/01/30 06:34:08;;;;;;;;;;;;;;;1.75;100.00;101980.44;5041740;28;19936;-80
2024/01/30 06:36:41;;;;;;;;;;;;;;;1.74;100.00;101982.31;5043468;28;19920;-80
2024/01/30 06:39:09;;;;;;;;;;;;;;;1.70;100.00;101981.00;5039098;28;19928;-80
2024/01/30 06:41:43;;;;;;;;;;;;;;;1.68;100.00;101977.69;5038266;28;19940;-81
2024/01/30 06:44:11;;;;;;;;;;;;;;;1.68;100.00;101985.72;5035491;28;19921;-86
2024/01/30 06:46:39;;;;;;;;;;;;;;;1.58;100.00;101969.91;5056979;28;19925;-80
2024/01/30 06:49:07;;;;;;;;;;;;;;;1.59;100.00;101982.31;5017484;28;19932;-82
2024/01/30 06:51:40;;;;;;;;;;;;;;;1.60;100.00;101981.31;5033956;28;19921;-79
2024/01/30 06:54:08;;;;;;;;;;;;;;;1.56;100.00;101974.66;5022048;28;19931;-80
2024/01/30 06:56:41;;;;;;;;;;;;;;;1.55;100.00;101980.19;5039270;28;19935;-79
2024/01/30 06:59:11;;;;;;;;;;;;;;;1.49;100.00;101973.72;5056894;28;19924;-83
2024/01/30 07:01:39;;;;;;;;;;;;;;;1.46;100.00;101974.94;5042804;28;19924;-81
2024/01/30 07:04:12;;;;;;;;;;;;;;;1.48;100.00;101988.19;5038493;28;19924;-80
2024/01/30 07:06:40;;;;;;;;;;;;;;;1.45;100.00;101978.66;5042840;28;19925;-81
2024/01/30 07:09:09;;;;;;;;;;;;;;;1.46;100.00;101984.84;5038209;28;19925;-81
2024/01/30 07:11:42;;;;;;;;;;;;;;;1.40;100.00;101974.88;5036836;28;19924;-81
2024/01/30 07:14:17;;;;;;;;;;;;;;;1.42;100.00;101975.50;5041937;28;19932;-81
2024/01/30 07:16:45;;;;;;;;;;;;;;;1.38;100.00;101982.25;5011787;28;19940;-80
2024/01/30 07:19:15;;;;;;;;;;;;;;;1.39;100.00;101981.25;5004673;28;19929;-79
2024/01/30 07:21:48;;;;;;;;;;;;;;;1.40;100.00;101989.09;5033839;28;19940;-80
2024/01/30 07:24:16;;;;;;;;;;;;;;;1.44;100.00;101994.94;5031298;28;19944;-79
2024/01/30 07:26:44;;;;;;;;;;;;;;;1.48;100.00;101989.00;5020075;28;19935;-79
2024/01/30 07:29:28;;;;;;;;;;;;;;;1.48;100.00;101991.69;5023996;28;19936;-78
2024/01/30 07:35:03;;;;;;;;;;;;;;;1.67;100.00;101987.59;5020058;28;19929;-78
2024/01/30 07:37:31;;;;;;;;;;;;;;;1.68;100.00;101983.03;5021104;28;19936;-79
2024/01/30 07:39:59;;;;;;;;;;;;;;;1.71;100.00;101985.34;5019356;28;19935;-79
2024/01/30 07:42:32;;;;;;;;;;;;;;;1.77;100.00;101983.75;4998377;28;19936;-78
2024/01/30 07:45:10;;;;;;;;;;;;;;;1.81;100.00;101979.66;5023268;28;19924;-79
2024/01/30 07:47:54;;;;;;;;;;;;;;;1.86;100.00;101979.94;5017316;28;20101;-79
2024/01/30 07:50:41;;;;;;;;;;;;;;;1.90;100.00;101980.41;5014713;28;20443;-79
2024/01/30 07:53:16;;;;;;;;;;;;;;;1.98;100.00;101981.09;4997323;28;19929;-79
2024/01/30 07:55:52;;;;;;;;;;;;;;;2.00;100.00;101983.59;5037090;28;19936;-79
2024/01/30 07:58:45;;;;;;;;;;;;;;;2.11;100.00;101968.84;4995490;28;19940;-79
2024/01/30 08:01:51;;;;;;;;;;;;;;;2.13;100.00;101967.63;5023168;28;19928;-78
2024/01/30 08:04:30;;;;;;;;;;;;;;;2.20;100.00;101967.69;5018233;28;20468;-79
2024/01/30 08:07:04;;;;;;;;;;;;;;;2.15;100.00;101968.25;4997681;28;19943;-79
2024/01/30 08:09:38;;;;;;;;;;;;;;;2.20;100.00;101979.25;5012028;28;21427;-79
2024/01/30 08:12:10;;;;;;;;;;;;;;;2.19;100.00;101976.78;5014572;28;19943;-78
2024/01/30 08:14:41;;;;;;;;;;;;;;;2.20;100.00;101975.75;5023477;28;20522;-79
2024/01/30 08:17:10;;;;;;;;;;;;;;;2.21;100.00;101980.13;5008410;28;20239;-79
2024/01/30 08:19:52;;;;;;;;;;;;;;;;;;;;;
2024/01/30 08:22:28;;;;;;;;;;;;;;;2.31;100.00;101977.91;5013998;28;19921;-79
2024/01/30 08:25:01;;;;;;;;;;;;;;;2.31;100.00;101969.03;5027460;28;19928;-79
2024/01/30 08:27:32;;;;;;;;;;;;;;;2.37;100.00;101979.00;5024448;28;19935;-79
2024/01/30 08:30:16;;;;;;;;;;;;;;;;;;;;;
2024/01/30 08:32:56;;;;;;;;;;;;;;;2.51;100.00;101970.06;5024844;28;19941;-78
2024/01/30 08:35:43;;;;;;;;;;;;;;;2.57;100.00;101963.06;5027980;28;19936;-78
2024/01/30 08:38:18;;;;;;;;;;;;;;;2.63;100.00;101964.97;4997063;28;19951;-78
2024/01/30 08:40:49;;;;;;;;;;;;;;;2.60;100.00;101954.59;5026923;28;19929;-78
2024/01/30 08:43:23;;;;;;;;;;;;;;;2.62;100.00;101967.84;5015217;28;19925;-78
2024/01/30 08:46:02;;;;;;;;;;;;;;;2.65;100.00;101962.06;5016353;28;19936;-78
2024/01/30 08:48:34;;;;;;;;;;;;;;;2.68;100.00;101959.84;5010324;28;20913;-77
2024/01/30 08:51:18;;;;;;;;;;;;;;;2.74;100.00;101965.47;5014442;28;19936;-78
2024/01/30 08:53:52;;;;;;;;;;;;;;;2.77;100.00;101951.63;5020494;28;19932;-78
2024/01/30 08:56:25;;;;;;;;;;;;;;;2.78;100.00;101953.28;5014146;28;19928;-77
2024/01/30 08:58:58;;;;;;;;;;;;;;;2.79;100.00;101961.16;5013739;28;19932;-77
2024/01/30 09:01:26;;;;;;;;;;;;;;;2.79;100.00;101965.69;5003286;28;19957;-78
2024/01/30 09:03:59;;;;;;;;;;;;;;;2.77;100.00;101952.44;5005885;28;19936;-78
2024/01/30 09:06:32;;;;;;;;;;;;;;;2.81;100.00;101958.25;5012799;28;19928;-77
2024/01/30 09:09:05;;;;;;;;;;;;;;;2.86;100.00;101961.22;5011586;28;19936;-77
2024/01/30 09:11:41;;;;;;;;;;;;;;;2.83;100.00;101958.88;5020927;28;19979;-78
2024/01/30 09:14:17;;;;;;;;;;;;;;;2.90;100.00;101965.16;5017639;28;20616;-81
2024/01/30 09:16:57;;;;;;;;;;;;;;;2.92;100.00;101954.22;5012010;28;19925;-77
2024/01/30 09:19:29;;;;;;;;;;;;;;;2.94;100.00;101952.97;5018779;28;20428;-78
2024/01/30 09:21:58;;;;;;;;;;;;;;;3.03;100.00;101950.97;5021238;28;19928;-77
2024/01/30 09:24:27;;;;;;;;;;;;;;;3.06;100.00;101945.19;5022833;28;19949;-78
2024/01/30 09:26:55;;;;;;;;;;;;;;;3.13;100.00;101940.66;5012876;28;19936;-78
2024/01/30 09:29:28;;;;;;;;;;;;;;;3.19;100.00;101942.56;5030977;28;19929;-78
2024/01/30 09:32:02;;;;;;;;;;;;;;;3.23;100.00;101937.59;5018913;28;20208;-80
2024/01/30 09:34:39;;;;;;;;;;;;;;;3.28;100.00;101924.38;5018376;28;19921;-79
2024/01/30 09:37:15;;;;;;;;;;;;;;;3.28;100.00;101916.31;5016640;28;20310;-79
2024/01/30 09:39:48;;;;;;;;;;;;;;;3.35;100.00;101919.03;5015550;28;19929;-78
2024/01/30 09:42:28;;;;;;;;;;;;;;;3.33;100.00;101916.56;5015091;28;19929;-78
2024/01/30 09:45:05;;;;;;;;;;;;;;;3.38;100.00;101924.84;5021903;28;21364;-78
2024/01/30 09:47:40;;;;;;;;;;;;;;;3.40;100.00;101920.09;5019821;28;21422;-78
2024/01/30 09:50:14;;;;;;;;;;;;;;;3.47;100.00;101922.81;5021623;28;19929;-78
2024/01/30 09:52:49;;;;;;;;;;;;;;;3.60;100.00;101926.56;4999633;28;19935;-78
2024/01/30 09:55:23;;;;;;;;;;;;;;;3.62;100.00;101919.13;5024285;28;19931;-78
2024/01/30 09:57:56;;;;;;;;;;;;;;;3.70;100.00;101925.16;5022113;28;19929;-79
2024/01/30 10:00:27;;;;;;;;;;;;;;;3.79;100.00;101919.59;5034276;28;20422;-78
2024/01/30 10:03:00;;;;;;;;;;;;;;;3.80;100.00;101926.63;5006884;28;19932;-78
2024/01/30 10:05:28;;;;;;;;;;;;;;;3.86;100.00;101939.28;5012058;28;19939;-78
2024/01/30 10:07:58;;;;;;;;;;;;;;;3.90;100.00;101945.91;5018584;28;20958;-78
2024/01/30 10:10:31;;;;;;;;;;;;;;;3.96;100.00;101949.66;5022549;28;19935;-78
2024/01/30 10:13:04;;;;;;;;;;;;;;;4.02;100.00;101946.13;5024001;28;19929;-77
2024/01/30 10:15:38;;;;;;;;;;;;;;;4.09;100.00;101937.03;5013713;28;20508;-78
2024/01/30 10:18:11;;;;;;;;;;;;;;;4.23;100.00;101937.06;4995163;28;19928;-77
2024/01/30 10:20:44;;;;;;;;;;;;;;;4.35;100.00;101935.41;5014299;28;21123;-77
2024/01/30 10:23:19;;;;;;;;;;;;;;;4.42;100.00;101932.72;5014950;28;19921;-77
2024/01/30 10:25:52;;;;;;;;;;;;;;;4.56;100.00;101931.66;5021517;28;19936;-78
2024/01/30 10:28:29;;;;;;;;;;;;;;;4.54;100.00;101927.50;5021324;28;19936;-77
2024/01/30 10:31:03;;;;;;;;;;;;;;;4.63;100.00;101923.56;5019819;28;19928;-77
2024/01/30 10:33:31;;;;;;;;;;;;;;;4.68;100.00;101922.94;5022103;28;19928;-77
2024/01/30 10:36:06;;;;;;;;;;;;;;;4.73;100.00;101915.88;5013225;28;19928;-79
2024/01/30 10:38:43;;;;;;;;;;;;;;;4.76;100.00;101910.06;5026612;28;21779;-78
2024/01/30 10:41:20;;;;;;;;;;;;;;;4.82;100.00;101915.63;5022232;28;19934;-78
2024/01/30 10:43:51;;;;;;;;;;;;;;;4.83;100.00;101901.94;5026057;28;19928;-78
2024/01/30 10:46:30;;;;;;;;;;;;;;;4.92;100.00;101902.56;5025477;28;19936;-78
2024/01/30 10:48:59;;;;;;;;;;;;;;;4.98;100.00;101898.19;5021200;28;19929;-78
2024/01/30 10:51:33;;;;;;;;;;;;;;;5.06;100.00;101897.94;5026229;28;19928;-78
2024/01/30 10:54:07;;;;;;;;;;;;;;;5.10;100.00;101896.47;5028280;28;19954;-78
2024/01/30 10:56:40;;;;;;;;;;;;;;;5.20;100.00;101898.72;5007081;28;19936;-78
2024/01/30 10:59:14;;;;;;;;;;;;;;;5.22;100.00;101897.47;5022479;28;19936;-78
2024/01/30 11:01:47;;;;;;;;;;;;;;;5.27;100.00;101899.53;5014234;28;19929;-79
2024/01/30 11:04:20;;;;;;;;;;;;;;;5.36;100.00;101887.44;5016856;28;19928;-78
2024/01/30 11:06:54;;;;;;;;;;;;;;;5.36;100.00;101894.69;5000451;28;21667;-78
2024/01/30 11:09:30;;;;;;;;;;;;;;;5.37;100.00;101883.72;5024269;28;19935;-78
2024/01/30 11:12:03;;;;;;;;;;;;;;;5.41;100.00;101873.28;5019429;28;19936;-78
2024/01/30 11:14:37;;;;;;;;;;;;;;;5.49;100.00;101881.13;5028085;28;19936;-78
2024/01/30 11:17:12;;;;;;;;;;;;;;;5.61;100.00;101886.69;4996623;28;20313;-77
2024/01/30 11:19:47;;;;;;;;;;;;;;;5.64;100.00;101890.84;5024101;28;19928;-77
2024/01/30 11:22:21;;;;;;;;;;;;;;;5.60;100.00;101887.72;5033553;28;19929;-78
2024/01/30 11:24:56;;;;;;;;;;;;;;;5.67;100.00;101888.50;5002836;28;19921;-78
2024/01/30 11:27:28;;;;;;;;;;;;;;;5.70;100.00;101887.25;5024420;28;19936;-78
2024/01/30 11:30:01;;;;;;;;;;;;;;;5.75;100.00;101877.44;4996122;28;19928;-78
2024/01/30 11:32:35;;;;;;;;;;;;;;;5.77;100.00;101883.47;5029114;28;20324;-78
2024/01/30 11:35:11;;;;;;;;;;;;;;;5.87;100.00;101871.34;5003714;28;19925;-78
2024/01/30 11:37:39;;;;;;;;;;;;;;;5.95;100.00;101880.03;5029694;28;19929;-78
2024/01/30 11:40:13;;;;;;;;;;;;;;;6.00;100.00;101863.19;5019691;28;19936;-78
2024/01/30 11:42:48;;;;;;;;;;;;;;;6.04;100.00;101858.16;5023420;28;19925;-78
2024/01/30 11:45:21;;;;;;;;;;;;;;;6.11;100.00;101859.75;5023593;28;19928;-78
2024/01/30 11:47:54;;;;;;;;;;;;;;;6.24;100.00;101860.69;5018833;28;19925;-78
2024/01/30 11:50:22;;;;;;;;;;;;;;;6.29;100.00;101868.97;5027269;28;20388;-77
2024/01/30 11:52:50;;;;;;;;;;;;;;;6.45;100.00;101864.88;5022362;28;20593;-78
2024/01/30 11:55:26;;;;;;;;;;;;;;;6.50;100.00;101865.03;5018979;28;19924;-78
2024/01/30 11:57:59;;;;;;;;;;;;;;;6.56;100.00;101860.59;5044885;28;19928;-78
2024/01/30 12:00:27;;;;;;;;;;;;;;;6.55;100.00;101845.44;5020811;28;19929;-78
2024/01/30 12:03:00;;;;;;;;;;;;;;;6.61;100.00;101837.22;5020452;28;19928;-78
2024/01/30 12:05:33;;;;;;;;;;;;;;;6.63;100.00;101840.53;5029108;28;19929;-77
2024/01/30 12:08:01;;;;;;;;;;;;;;;6.64;100.00;101835.94;5025162;28;19935;-78
2024/01/30 12:10:36;;;;;;;;;;;;;;;6.63;100.00;101842.44;5024433;28;20543;-78
2024/01/30 12:13:09;;;;;;;;;;;;;;;6.63;100.00;101839.72;5021180;28;19928;-78
2024/01/30 12:15:36;;;;;;;;;;;;;;;6.62;100.00;101830.78;5023066;28;20759;-78
2024/01/30 12:18:10;;;;;;;;;;;;;;;6.61;100.00;101837.22;5029703;28;20636;-78
2024/01/30 12:20:38;;;;;;;;;;;;;;;6.71;100.00;101833.19;5028556;28;20182;-78
2024/01/30 12:23:06;;;;;;;;;;;;;;;6.75;100.00;101840.63;5029619;28;19935;-78
2024/01/30 12:25:40;;;;;;;;;;;;;;;6.77;100.00;101840.41;5000267;28;19936;-78
2024/01/30 12:28:08;;;;;;;;;;;;;;;6.78;100.00;101844.75;5018648;28;19931;-78
2024/01/30 12:30:41;;;;;;;;;;;;;;;6.83;100.00;101841.38;5019296;28;19929;-78
2024/01/30 12:33:17;;;;;;;;;;;;;;;6.84;100.00;101843.84;5001341;28;19939;-78
2024/01/30 12:35:46;;;;;;;;;;;;;;;6.93;100.00;101823.56;5029722;28;20365;-78
2024/01/30 12:38:20;;;;;;;;;;;;;;;6.90;100.00;101825.88;5022034;28;19936;-78
2024/01/30 12:40:56;;;;;;;;;;;;;;;6.93;100.00;101823.56;5004417;28;20262;-78
2024/01/30 12:43:30;;;;;;;;;;;;;;;6.98;100.00;101814.75;5026784;28;19925;-79
2024/01/30 12:46:04;;;;;;;;;;;;;;;7.03;100.00;101825.72;5039832;28;19936;-79
2024/01/30 12:48:37;;;;;;;;;;;;;;;7.05;100.00;101825.50;5027887;28;19929;-78
2024/01/30 12:51:05;;;;;;;;;;;;;;;7.00;100.00;101822.63;5017038;28;20818;-79
2024/01/30 12:53:33;;;;;;;;;;;;;;;7.00;100.00;101817.22;5023167;28;20341;-79
2024/01/30 12:56:07;;;;;;;;;;;;;;;6.95;100.00;101818.75;5019069;28;19936;-78
2024/01/30 12:58:42;;;;;;;;;;;;;;;7.03;100.00;101822.19;5044897;28;19932;-78
2024/01/30 13:01:10;;;;;;;;;;;;;;;6.98;100.00;101817.47;5040945;28;19929;-78
2024/01/30 13:03:38;;;;;;;;;;;;;;;7.03;100.00;101817.63;5022235;28;20521;-79
2024/01/30 13:06:06;;;;;;;;;;;;;;;7.12;100.00;101813.50;4999080;28;19939;-79
2024/01/30 13:08:34;;;;;;;;;;;;;;;7.19;100.00;101815.31;5021979;28;20392;-78